sensor_id;sensor_type;location;lat;lon;timestamp;P1;durP1;ratioP1;P2;durP2;ratioP2
57055;SDS011;42945;51.718;5.324;2022-11-15T00:00:25;69.47;;;22.30;;
57055;SDS011;42945;51.718;5.324;2022-11-15T00:02:54;66.80;;;23.90;;
57055;SDS011;42945;51.718;5.324;2022-11-15T00:05:20;65.45;;;22.67;;
57055;SDS011;42945;51.718;5.324;2022-11-15T00:07:45;73.30;;;24.25;;
57055;SDS011;42945;51.718;5.324;2022-11-15T00:10:10;65.63;;;23.65;;
57055;SDS011;42945;51.718;5.324;2022-11-15T00:12:36;71.80;;;23.48;;
57055;SDS011;42945;51.718;5.324;2022-11-15T00:15:01;77.47;;;24.25;;
57055;SDS011;42945;51.718;5.324;2022-11-15T00:17:27;74.47;;;23.58;;
57055;SDS011;42945;51.718;5.324;2022-11-15T00:19:52;64.40;;;22.98;;
57055;SDS011;42945;51.718;5.324;2022-11-15T00:22:17;65.07;;;23.85;;
57055;SDS011;42945;51.718;5.324;2022-11-15T00:24:43;68.22;;;23.63;;
57055;SDS011;42945;51.718;5.324;2022-11-15T00:27:08;64.90;;;24.08;;
57055;SDS011;42945;51.718;5.324;2022-11-15T00:29:33;69.90;;;24.65;;
57055;SDS011;42945;51.718;5.324;2022-11-15T00:31:58;55.33;;;22.55;;
57055;SDS011;42945;51.718;5.324;2022-11-15T00:34:24;84.80;;;24.92;;
57055;SDS011;42945;51.718;5.324;2022-11-15T00:36:49;67.68;;;24.40;;
57055;SDS011;42945;51.718;5.324;2022-11-15T00:39:14;62.85;;;23.30;;
57055;SDS011;42945;51.718;5.324;2022-11-15T00:41:41;62.78;;;23.08;;
57055;SDS011;42945;51.718;5.324;2022-11-15T00:44:06;75.22;;;24.35;;
57055;SDS011;42945;51.718;5.324;2022-11-15T00:46:32;62.97;;;23.38;;
57055;SDS011;42945;51.718;5.324;2022-11-15T00:48:57;68.35;;;22.58;;
57055;SDS011;42945;51.718;5.324;2022-11-15T00:51:22;60.20;;;22.17;;
57055;SDS011;42945;51.718;5.324;2022-11-15T00:53:47;67.38;;;24.10;;
57055;SDS011;42945;51.718;5.324;2022-11-15T00:56:13;59.97;;;23.02;;
57055;SDS011;42945;51.718;5.324;2022-11-15T00:58:38;58.75;;;22.83;;
57055;SDS011;42945;51.718;5.324;2022-11-15T01:01:08;60.00;;;23.02;;
57055;SDS011;42945;51.718;5.324;2022-11-15T01:03:36;51.60;;;21.83;;
57055;SDS011;42945;51.718;5.324;2022-11-15T01:06:02;57.65;;;22.90;;
57055;SDS011;42945;51.718;5.324;2022-11-15T01:08:28;51.58;;;21.05;;
57055;SDS011;42945;51.718;5.324;2022-11-15T01:10:53;57.08;;;21.55;;
57055;SDS011;42945;51.718;5.324;2022-11-15T01:13:19;50.40;;;21.40;;
57055;SDS011;42945;51.718;5.324;2022-11-15T01:15:44;56.50;;;22.50;;
57055;SDS011;42945;51.718;5.324;2022-11-15T01:18:10;53.00;;;20.95;;
57055;SDS011;42945;51.718;5.324;2022-11-15T01:20:41;54.90;;;22.25;;
57055;SDS011;42945;51.718;5.324;2022-11-15T01:23:07;52.88;;;21.90;;
57055;SDS011;42945;51.718;5.324;2022-11-15T01:25:33;52.28;;;21.20;;
57055;SDS011;42945;51.718;5.324;2022-11-15T01:27:58;46.13;;;20.77;;
57055;SDS011;42945;51.718;5.324;2022-11-15T01:30:24;51.42;;;21.38;;
57055;SDS011;42945;51.718;5.324;2022-11-15T01:32:50;47.72;;;20.33;;
57055;SDS011;42945;51.718;5.324;2022-11-15T01:35:16;45.67;;;20.20;;
57055;SDS011;42945;51.718;5.324;2022-11-15T01:37:41;43.65;;;19.58;;
57055;SDS011;42945;51.718;5.324;2022-11-15T01:40:06;54.38;;;19.85;;
57055;SDS011;42945;51.718;5.324;2022-11-15T01:42:32;46.97;;;21.63;;
57055;SDS011;42945;51.718;5.324;2022-11-15T01:44:57;45.45;;;19.85;;
57055;SDS011;42945;51.718;5.324;2022-11-15T01:47:27;53.80;;;21.83;;
57055;SDS011;42945;51.718;5.324;2022-11-15T01:50:03;45.38;;;20.98;;
57055;SDS011;42945;51.718;5.324;2022-11-15T01:52:31;48.88;;;21.52;;
57055;SDS011;42945;51.718;5.324;2022-11-15T01:55:18;45.72;;;20.77;;
57055;SDS011;42945;51.718;5.324;2022-11-15T01:57:47;43.30;;;20.83;;
57055;SDS011;42945;51.718;5.324;2022-11-15T02:00:15;49.13;;;20.35;;
57055;SDS011;42945;51.718;5.324;2022-11-15T02:02:41;41.67;;;19.65;;
57055;SDS011;42945;51.718;5.324;2022-11-15T02:05:08;42.10;;;20.73;;
57055;SDS011;42945;51.718;5.324;2022-11-15T02:07:34;44.83;;;20.77;;
57055;SDS011;42945;51.718;5.324;2022-11-15T02:10:02;41.03;;;20.17;;
57055;SDS011;42945;51.718;5.324;2022-11-15T02:12:32;43.70;;;20.35;;
57055;SDS011;42945;51.718;5.324;2022-11-15T02:14:58;47.03;;;19.67;;
57055;SDS011;42945;51.718;5.324;2022-11-15T02:20:39;39.13;;;19.92;;
57055;SDS011;42945;51.718;5.324;2022-11-15T02:36:24;40.42;;;20.38;;
57055;SDS011;42945;51.718;5.324;2022-11-15T02:38:56;41.55;;;20.65;;
57055;SDS011;42945;51.718;5.324;2022-11-15T02:41:31;39.20;;;20.05;;
57055;SDS011;42945;51.718;5.324;2022-11-15T02:44:07;40.53;;;20.27;;
57055;SDS011;42945;51.718;5.324;2022-11-15T02:46:45;41.22;;;20.23;;
57055;SDS011;42945;51.718;5.324;2022-11-15T02:49:33;40.90;;;20.88;;
57055;SDS011;42945;51.718;5.324;2022-11-15T02:52:00;44.05;;;20.02;;
57055;SDS011;42945;51.718;5.324;2022-11-15T02:54:28;42.95;;;20.23;;
57055;SDS011;42945;51.718;5.324;2022-11-15T02:56:56;44.33;;;20.50;;
57055;SDS011;42945;51.718;5.324;2022-11-15T03:07:48;41.33;;;21.02;;
57055;SDS011;42945;51.718;5.324;2022-11-15T03:10:26;42.25;;;20.70;;
57055;SDS011;42945;51.718;5.324;2022-11-15T03:15:27;41.88;;;21.15;;
57055;SDS011;42945;51.718;5.324;2022-11-15T03:18:02;45.70;;;21.13;;
57055;SDS011;42945;51.718;5.324;2022-11-15T03:20:33;43.03;;;21.87;;
57055;SDS011;42945;51.718;5.324;2022-11-15T03:23:03;45.55;;;22.00;;
57055;SDS011;42945;51.718;5.324;2022-11-15T03:25:30;45.60;;;21.08;;
57055;SDS011;42945;51.718;5.324;2022-11-15T03:27:58;43.83;;;20.80;;
57055;SDS011;42945;51.718;5.324;2022-11-15T03:30:28;43.15;;;20.52;;
57055;SDS011;42945;51.718;5.324;2022-11-15T03:32:57;42.88;;;21.13;;
57055;SDS011;42945;51.718;5.324;2022-11-15T03:35:27;42.03;;;21.40;;
57055;SDS011;42945;51.718;5.324;2022-11-15T03:40:53;40.70;;;20.67;;
57055;SDS011;42945;51.718;5.324;2022-11-15T03:46:18;47.50;;;21.15;;
57055;SDS011;42945;51.718;5.324;2022-11-15T03:48:51;39.95;;;20.17;;
57055;SDS011;42945;51.718;5.324;2022-11-15T03:51:21;45.60;;;21.27;;
57055;SDS011;42945;51.718;5.324;2022-11-15T03:53:47;44.05;;;20.02;;
57055;SDS011;42945;51.718;5.324;2022-11-15T03:56:12;44.03;;;20.95;;
57055;SDS011;42945;51.718;5.324;2022-11-15T03:58:37;39.25;;;19.58;;
57055;SDS011;42945;51.718;5.324;2022-11-15T04:01:03;52.13;;;21.85;;
57055;SDS011;42945;51.718;5.324;2022-11-15T04:03:28;46.17;;;20.95;;
57055;SDS011;42945;51.718;5.324;2022-11-15T04:05:54;51.40;;;20.55;;
57055;SDS011;42945;51.718;5.324;2022-11-15T04:08:19;43.05;;;21.05;;
57055;SDS011;42945;51.718;5.324;2022-11-15T04:10:44;48.55;;;22.35;;
57055;SDS011;42945;51.718;5.324;2022-11-15T04:13:09;44.38;;;21.17;;
57055;SDS011;42945;51.718;5.324;2022-11-15T04:15:35;47.47;;;21.48;;
57055;SDS011;42945;51.718;5.324;2022-11-15T04:18:01;42.60;;;20.80;;
57055;SDS011;42945;51.718;5.324;2022-11-15T04:20:27;43.30;;;20.60;;
57055;SDS011;42945;51.718;5.324;2022-11-15T04:23:19;43.35;;;20.38;;
57055;SDS011;42945;51.718;5.324;2022-11-15T04:26:05;47.92;;;22.65;;
57055;SDS011;42945;51.718;5.324;2022-11-15T04:28:35;45.58;;;21.80;;
57055;SDS011;42945;51.718;5.324;2022-11-15T04:31:21;46.03;;;21.63;;
57055;SDS011;42945;51.718;5.324;2022-11-15T04:33:46;47.00;;;20.95;;
57055;SDS011;42945;51.718;5.324;2022-11-15T04:36:12;46.13;;;20.40;;
57055;SDS011;42945;51.718;5.324;2022-11-15T04:38:56;51.83;;;21.35;;
57055;SDS011;42945;51.718;5.324;2022-11-15T04:41:21;50.80;;;22.38;;
57055;SDS011;42945;51.718;5.324;2022-11-15T04:43:46;44.63;;;22.17;;
57055;SDS011;42945;51.718;5.324;2022-11-15T04:46:12;53.78;;;22.70;;
57055;SDS011;42945;51.718;5.324;2022-11-15T04:48:37;46.15;;;22.17;;
57055;SDS011;42945;51.718;5.324;2022-11-15T04:51:03;49.88;;;21.42;;
57055;SDS011;42945;51.718;5.324;2022-11-15T04:53:28;49.22;;;22.25;;
57055;SDS011;42945;51.718;5.324;2022-11-15T04:55:53;52.40;;;21.83;;
57055;SDS011;42945;51.718;5.324;2022-11-15T04:58:18;49.70;;;22.45;;
57055;SDS011;42945;51.718;5.324;2022-11-15T05:00:44;49.92;;;21.15;;
57055;SDS011;42945;51.718;5.324;2022-11-15T05:03:09;48.38;;;21.85;;
57055;SDS011;42945;51.718;5.324;2022-11-15T05:05:53;47.08;;;20.65;;
57055;SDS011;42945;51.718;5.324;2022-11-15T05:08:19;47.22;;;21.38;;
57055;SDS011;42945;51.718;5.324;2022-11-15T05:10:44;50.45;;;21.40;;
57055;SDS011;42945;51.718;5.324;2022-11-15T05:13:10;57.33;;;21.63;;
57055;SDS011;42945;51.718;5.324;2022-11-15T05:15:35;47.85;;;21.45;;
57055;SDS011;42945;51.718;5.324;2022-11-15T05:18:01;49.60;;;21.55;;
57055;SDS011;42945;51.718;5.324;2022-11-15T05:20:26;46.75;;;21.40;;
57055;SDS011;42945;51.718;5.324;2022-11-15T05:22:52;51.70;;;22.70;;
57055;SDS011;42945;51.718;5.324;2022-11-15T05:25:20;49.10;;;21.83;;
57055;SDS011;42945;51.718;5.324;2022-11-15T05:27:45;52.65;;;21.10;;
57055;SDS011;42945;51.718;5.324;2022-11-15T05:30:11;50.35;;;21.83;;
57055;SDS011;42945;51.718;5.324;2022-11-15T05:32:36;48.15;;;21.40;;
57055;SDS011;42945;51.718;5.324;2022-11-15T05:35:02;51.83;;;23.92;;
57055;SDS011;42945;51.718;5.324;2022-11-15T05:37:30;49.28;;;22.52;;
57055;SDS011;42945;51.718;5.324;2022-11-15T05:39:55;44.35;;;21.73;;
57055;SDS011;42945;51.718;5.324;2022-11-15T05:42:22;52.95;;;21.13;;
57055;SDS011;42945;51.718;5.324;2022-11-15T05:44:48;47.10;;;23.02;;
57055;SDS011;42945;51.718;5.324;2022-11-15T05:47:19;47.20;;;21.73;;
57055;SDS011;42945;51.718;5.324;2022-11-15T05:49:49;51.85;;;22.05;;
57055;SDS011;42945;51.718;5.324;2022-11-15T05:52:17;51.10;;;21.33;;
57055;SDS011;42945;51.718;5.324;2022-11-15T05:54:48;42.70;;;19.95;;
57055;SDS011;42945;51.718;5.324;2022-11-15T05:57:14;50.05;;;22.52;;
57055;SDS011;42945;51.718;5.324;2022-11-15T05:59:39;48.38;;;21.15;;
57055;SDS011;42945;51.718;5.324;2022-11-15T06:02:06;46.38;;;20.73;;
57055;SDS011;42945;51.718;5.324;2022-11-15T06:04:31;52.72;;;20.25;;
57055;SDS011;42945;51.718;5.324;2022-11-15T06:06:58;48.30;;;20.88;;
57055;SDS011;42945;51.718;5.324;2022-11-15T06:09:23;42.10;;;20.27;;
57055;SDS011;42945;51.718;5.324;2022-11-15T06:11:49;44.13;;;20.40;;
57055;SDS011;42945;51.718;5.324;2022-11-15T06:14:14;43.72;;;19.17;;
57055;SDS011;42945;51.718;5.324;2022-11-15T06:16:39;42.50;;;19.00;;
57055;SDS011;42945;51.718;5.324;2022-11-15T06:19:05;55.22;;;21.27;;
57055;SDS011;42945;51.718;5.324;2022-11-15T06:21:32;42.67;;;18.65;;
57055;SDS011;42945;51.718;5.324;2022-11-15T06:23:57;52.90;;;20.08;;
57055;SDS011;42945;51.718;5.324;2022-11-15T06:26:22;36.97;;;18.45;;
57055;SDS011;42945;51.718;5.324;2022-11-15T06:28:47;42.83;;;19.75;;
57055;SDS011;42945;51.718;5.324;2022-11-15T06:31:13;48.55;;;20.05;;
57055;SDS011;42945;51.718;5.324;2022-11-15T06:33:39;42.33;;;19.60;;
57055;SDS011;42945;51.718;5.324;2022-11-15T06:36:06;44.53;;;18.60;;
57055;SDS011;42945;51.718;5.324;2022-11-15T06:38:33;43.20;;;19.02;;
57055;SDS011;42945;51.718;5.324;2022-11-15T06:41:01;47.67;;;18.45;;
57055;SDS011;42945;51.718;5.324;2022-11-15T06:43:30;44.05;;;19.15;;
57055;SDS011;42945;51.718;5.324;2022-11-15T06:45:57;38.92;;;18.33;;
57055;SDS011;42945;51.718;5.324;2022-11-15T06:48:26;38.95;;;18.00;;
57055;SDS011;42945;51.718;5.324;2022-11-15T06:50:53;40.63;;;18.40;;
57055;SDS011;42945;51.718;5.324;2022-11-15T06:53:20;41.70;;;18.35;;
57055;SDS011;42945;51.718;5.324;2022-11-15T06:55:45;39.42;;;16.80;;
57055;SDS011;42945;51.718;5.324;2022-11-15T06:58:11;43.17;;;18.33;;
57055;SDS011;42945;51.718;5.324;2022-11-15T07:00:36;37.33;;;17.75;;
57055;SDS011;42945;51.718;5.324;2022-11-15T07:03:01;38.30;;;17.40;;
57055;SDS011;42945;51.718;5.324;2022-11-15T07:05:27;44.35;;;18.70;;
57055;SDS011;42945;51.718;5.324;2022-11-15T07:07:53;34.40;;;16.65;;
57055;SDS011;42945;51.718;5.324;2022-11-15T07:10:20;38.22;;;17.63;;
57055;SDS011;42945;51.718;5.324;2022-11-15T07:12:47;37.10;;;17.02;;
57055;SDS011;42945;51.718;5.324;2022-11-15T07:15:14;41.60;;;17.80;;
57055;SDS011;42945;51.718;5.324;2022-11-15T07:17:40;35.40;;;16.27;;
57055;SDS011;42945;51.718;5.324;2022-11-15T07:20:05;37.45;;;16.40;;
57055;SDS011;42945;51.718;5.324;2022-11-15T07:22:31;40.88;;;17.95;;
57055;SDS011;42945;51.718;5.324;2022-11-15T07:24:56;37.65;;;17.25;;
57055;SDS011;42945;51.718;5.324;2022-11-15T07:27:21;35.88;;;16.17;;
57055;SDS011;42945;51.718;5.324;2022-11-15T07:29:47;32.72;;;16.42;;
57055;SDS011;42945;51.718;5.324;2022-11-15T07:32:12;49.58;;;18.50;;
57055;SDS011;42945;51.718;5.324;2022-11-15T07:34:37;35.55;;;15.38;;
57055;SDS011;42945;51.718;5.324;2022-11-15T07:37:03;34.72;;;16.02;;
57055;SDS011;42945;51.718;5.324;2022-11-15T07:39:28;34.13;;;15.77;;
57055;SDS011;42945;51.718;5.324;2022-11-15T07:41:54;33.67;;;15.10;;
57055;SDS011;42945;51.718;5.324;2022-11-15T07:44:39;34.80;;;15.48;;
57055;SDS011;42945;51.718;5.324;2022-11-15T07:47:04;31.67;;;14.27;;
57055;SDS011;42945;51.718;5.324;2022-11-15T07:49:29;28.25;;;14.27;;
57055;SDS011;42945;51.718;5.324;2022-11-15T07:51:55;24.83;;;13.50;;
57055;SDS011;42945;51.718;5.324;2022-11-15T07:54:22;33.20;;;14.73;;
57055;SDS011;42945;51.718;5.324;2022-11-15T07:56:47;31.42;;;14.65;;
57055;SDS011;42945;51.718;5.324;2022-11-15T07:59:12;30.27;;;14.23;;
57055;SDS011;42945;51.718;5.324;2022-11-15T08:01:37;29.77;;;14.98;;
57055;SDS011;42945;51.718;5.324;2022-11-15T08:04:03;32.53;;;15.50;;
57055;SDS011;42945;51.718;5.324;2022-11-15T08:06:28;34.28;;;15.25;;
57055;SDS011;42945;51.718;5.324;2022-11-15T08:08:53;31.40;;;15.18;;
57055;SDS011;42945;51.718;5.324;2022-11-15T08:11:19;31.65;;;15.10;;
57055;SDS011;42945;51.718;5.324;2022-11-15T08:13:44;61.28;;;30.55;;
57055;SDS011;42945;51.718;5.324;2022-11-15T08:16:09;30.05;;;16.38;;
57055;SDS011;42945;51.718;5.324;2022-11-15T08:18:36;27.85;;;15.20;;
57055;SDS011;42945;51.718;5.324;2022-11-15T08:21:02;33.80;;;15.05;;
57055;SDS011;42945;51.718;5.324;2022-11-15T08:23:28;28.73;;;14.25;;
57055;SDS011;42945;51.718;5.324;2022-11-15T08:25:58;28.67;;;13.98;;
57055;SDS011;42945;51.718;5.324;2022-11-15T08:28:24;30.52;;;14.25;;
57055;SDS011;42945;51.718;5.324;2022-11-15T08:30:50;28.77;;;14.60;;
57055;SDS011;42945;51.718;5.324;2022-11-15T08:33:15;28.98;;;13.75;;
57055;SDS011;42945;51.718;5.324;2022-11-15T08:35:41;28.25;;;13.90;;
57055;SDS011;42945;51.718;5.324;2022-11-15T08:38:08;26.35;;;12.38;;
57055;SDS011;42945;51.718;5.324;2022-11-15T08:40:33;25.85;;;12.35;;
57055;SDS011;42945;51.718;5.324;2022-11-15T08:42:59;19.90;;;11.00;;
57055;SDS011;42945;51.718;5.324;2022-11-15T08:45:27;25.70;;;11.27;;
57055;SDS011;42945;51.718;5.324;2022-11-15T08:47:52;23.70;;;11.00;;
57055;SDS011;42945;51.718;5.324;2022-11-15T08:50:18;26.83;;;11.15;;
57055;SDS011;42945;51.718;5.324;2022-11-15T08:52:43;23.25;;;10.93;;
57055;SDS011;42945;51.718;5.324;2022-11-15T08:55:09;22.00;;;11.27;;
57055;SDS011;42945;51.718;5.324;2022-11-15T08:57:35;21.23;;;10.90;;
57055;SDS011;42945;51.718;5.324;2022-11-15T09:00:01;19.83;;;10.60;;
57055;SDS011;42945;51.718;5.324;2022-11-15T09:02:26;19.88;;;10.45;;
57055;SDS011;42945;51.718;5.324;2022-11-15T09:04:51;27.92;;;10.98;;
57055;SDS011;42945;51.718;5.324;2022-11-15T09:07:17;21.77;;;10.80;;
57055;SDS011;42945;51.718;5.324;2022-11-15T09:09:42;21.92;;;10.13;;
57055;SDS011;42945;51.718;5.324;2022-11-15T09:12:10;18.02;;;9.90;;
57055;SDS011;42945;51.718;5.324;2022-11-15T09:14:36;25.80;;;9.55;;
57055;SDS011;42945;51.718;5.324;2022-11-15T09:17:01;16.60;;;8.55;;
57055;SDS011;42945;51.718;5.324;2022-11-15T09:19:27;17.60;;;9.43;;
57055;SDS011;42945;51.718;5.324;2022-11-15T09:21:52;15.50;;;7.85;;
57055;SDS011;42945;51.718;5.324;2022-11-15T09:24:17;19.80;;;11.77;;
57055;SDS011;42945;51.718;5.324;2022-11-15T09:26:45;18.67;;;7.57;;
57055;SDS011;42945;51.718;5.324;2022-11-15T09:29:11;14.00;;;7.97;;
57055;SDS011;42945;51.718;5.324;2022-11-15T09:31:39;13.52;;;6.22;;
57055;SDS011;42945;51.718;5.324;2022-11-15T09:34:04;13.45;;;6.45;;
57055;SDS011;42945;51.718;5.324;2022-11-15T09:36:29;12.23;;;6.30;;
57055;SDS011;42945;51.718;5.324;2022-11-15T09:38:57;10.43;;;5.80;;
57055;SDS011;42945;51.718;5.324;2022-11-15T09:41:25;11.52;;;5.50;;
57055;SDS011;42945;51.718;5.324;2022-11-15T09:49:53;7.72;;;3.70;;
57055;SDS011;42945;51.718;5.324;2022-11-15T09:52:20;5.68;;;3.40;;
57055;SDS011;42945;51.718;5.324;2022-11-15T09:54:47;7.90;;;3.17;;
57055;SDS011;42945;51.718;5.324;2022-11-15T10:05:07;5.30;;;3.03;;
57055;SDS011;42945;51.718;5.324;2022-11-15T10:12:52;10.85;;;2.75;;
57055;SDS011;42945;51.718;5.324;2022-11-15T10:15:18;4.38;;;2.10;;
57055;SDS011;42945;51.718;5.324;2022-11-15T10:20:54;5.85;;;2.30;;
57055;SDS011;42945;51.718;5.324;2022-11-15T10:23:21;8.20;;;2.05;;
57055;SDS011;42945;51.718;5.324;2022-11-15T10:25:49;5.65;;;2.40;;
57055;SDS011;42945;51.718;5.324;2022-11-15T10:28:26;6.95;;;2.33;;
57055;SDS011;42945;51.718;5.324;2022-11-15T10:30:57;4.85;;;2.00;;
57055;SDS011;42945;51.718;5.324;2022-11-15T10:43:44;5.35;;;1.70;;
57055;SDS011;42945;51.718;5.324;2022-11-15T10:46:23;5.95;;;1.70;;
57055;SDS011;42945;51.718;5.324;2022-11-15T10:48:50;5.18;;;1.52;;
57055;SDS011;42945;51.718;5.324;2022-11-15T10:51:23;6.13;;;1.42;;
57055;SDS011;42945;51.718;5.324;2022-11-15T10:53:56;8.13;;;1.30;;
57055;SDS011;42945;51.718;5.324;2022-11-15T10:56:24;6.90;;;1.30;;
57055;SDS011;42945;51.718;5.324;2022-11-15T10:58:54;8.88;;;1.20;;
57055;SDS011;42945;51.718;5.324;2022-11-15T11:01:25;8.07;;;1.35;;
57055;SDS011;42945;51.718;5.324;2022-11-15T11:04:05;4.93;;;1.20;;
57055;SDS011;42945;51.718;5.324;2022-11-15T11:06:50;8.93;;;1.77;;
57055;SDS011;42945;51.718;5.324;2022-11-15T11:09:33;5.28;;;1.15;;
57055;SDS011;42945;51.718;5.324;2022-11-15T11:11:59;8.15;;;1.42;;
57055;SDS011;42945;51.718;5.324;2022-11-15T11:14:26;4.95;;;1.00;;
57055;SDS011;42945;51.718;5.324;2022-11-15T11:25:08;9.52;;;1.40;;
57055;SDS011;42945;51.718;5.324;2022-11-15T11:33:07;8.65;;;3.15;;
57055;SDS011;42945;51.718;5.324;2022-11-15T11:35:39;6.10;;;1.20;;
57055;SDS011;42945;51.718;5.324;2022-11-15T11:40:59;4.75;;;1.10;;
57055;SDS011;42945;51.718;5.324;2022-11-15T11:52:19;8.40;;;1.00;;
57055;SDS011;42945;51.718;5.324;2022-11-15T11:57:34;9.40;;;1.13;;
57055;SDS011;42945;51.718;5.324;2022-11-15T12:00:16;14.00;;;1.00;;
57055;SDS011;42945;51.718;5.324;2022-11-15T12:08:27;6.30;;;1.63;;
57055;SDS011;42945;51.718;5.324;2022-11-15T12:11:20;5.40;;;0.85;;
57055;SDS011;42945;51.718;5.324;2022-11-15T12:13:57;6.25;;;1.10;;
57055;SDS011;42945;51.718;5.324;2022-11-15T12:16:27;5.55;;;1.08;;
57055;SDS011;42945;51.718;5.324;2022-11-15T12:18:54;5.40;;;0.90;;
57055;SDS011;42945;51.718;5.324;2022-11-15T12:29:39;7.43;;;1.33;;
57055;SDS011;42945;51.718;5.324;2022-11-15T12:34:50;4.00;;;0.80;;
57055;SDS011;42945;51.718;5.324;2022-11-15T12:40:13;5.40;;;1.27;;
57055;SDS011;42945;51.718;5.324;2022-11-15T12:45:50;7.30;;;0.80;;
57055;SDS011;42945;51.718;5.324;2022-11-15T12:58:27;7.95;;;0.90;;
57055;SDS011;42945;51.718;5.324;2022-11-15T13:01:06;7.80;;;0.88;;
57055;SDS011;42945;51.718;5.324;2022-11-15T13:03:32;6.05;;;0.90;;
57055;SDS011;42945;51.718;5.324;2022-11-15T13:05:59;4.93;;;1.08;;
57055;SDS011;42945;51.718;5.324;2022-11-15T13:08:37;5.60;;;0.77;;
57055;SDS011;42945;51.718;5.324;2022-11-15T13:11:51;4.47;;;0.77;;
57055;SDS011;42945;51.718;5.324;2022-11-15T13:19:45;7.25;;;1.05;;
57055;SDS011;42945;51.718;5.324;2022-11-15T13:22:11;4.68;;;0.73;;
57055;SDS011;42945;51.718;5.324;2022-11-15T13:24:55;5.85;;;0.85;;
57055;SDS011;42945;51.718;5.324;2022-11-15T13:27:21;4.78;;;1.08;;
57055;SDS011;42945;51.718;5.324;2022-11-15T13:29:47;3.90;;;0.90;;
57055;SDS011;42945;51.718;5.324;2022-11-15T13:32:13;5.68;;;1.00;;
57055;SDS011;42945;51.718;5.324;2022-11-15T13:34:43;5.25;;;1.08;;
57055;SDS011;42945;51.718;5.324;2022-11-15T13:37:32;8.07;;;1.08;;
57055;SDS011;42945;51.718;5.324;2022-11-15T13:40:10;6.57;;;0.90;;
57055;SDS011;42945;51.718;5.324;2022-11-15T13:42:45;5.32;;;1.30;;
57055;SDS011;42945;51.718;5.324;2022-11-15T13:45:12;5.97;;;1.20;;
57055;SDS011;42945;51.718;5.324;2022-11-15T13:47:40;4.80;;;0.82;;
57055;SDS011;42945;51.718;5.324;2022-11-15T13:50:05;8.98;;;1.13;;
57055;SDS011;42945;51.718;5.324;2022-11-15T13:52:32;9.68;;;3.47;;
57055;SDS011;42945;51.718;5.324;2022-11-15T13:55:04;3.30;;;1.42;;
57055;SDS011;42945;51.718;5.324;2022-11-15T14:03:32;4.70;;;0.73;;
57055;SDS011;42945;51.718;5.324;2022-11-15T14:06:03;3.97;;;0.90;;
57055;SDS011;42945;51.718;5.324;2022-11-15T14:08:37;4.20;;;1.52;;
57055;SDS011;42945;51.718;5.324;2022-11-15T14:13:59;5.70;;;0.95;;
57055;SDS011;42945;51.718;5.324;2022-11-15T14:16:37;4.28;;;0.90;;
57055;SDS011;42945;51.718;5.324;2022-11-15T14:24:33;5.15;;;1.00;;
57055;SDS011;42945;51.718;5.324;2022-11-15T14:27:15;6.35;;;1.17;;
57055;SDS011;42945;51.718;5.324;2022-11-15T14:29:44;6.43;;;1.00;;
57055;SDS011;42945;51.718;5.324;2022-11-15T14:32:14;3.63;;;1.08;;
57055;SDS011;42945;51.718;5.324;2022-11-15T14:34:44;3.60;;;1.05;;
57055;SDS011;42945;51.718;5.324;2022-11-15T14:37:21;5.05;;;1.50;;
57055;SDS011;42945;51.718;5.324;2022-11-15T14:39:51;7.38;;;1.13;;
57055;SDS011;42945;51.718;5.324;2022-11-15T14:42:17;5.07;;;1.10;;
57055;SDS011;42945;51.718;5.324;2022-11-15T14:44:44;3.88;;;1.10;;
57055;SDS011;42945;51.718;5.324;2022-11-15T14:47:09;2.63;;;0.88;;
57055;SDS011;42945;51.718;5.324;2022-11-15T14:49:35;6.50;;;0.93;;
57055;SDS011;42945;51.718;5.324;2022-11-15T14:52:00;3.92;;;0.88;;
57055;SDS011;42945;51.718;5.324;2022-11-15T14:54:26;4.72;;;1.20;;
57055;SDS011;42945;51.718;5.324;2022-11-15T14:56:51;6.97;;;1.33;;
57055;SDS011;42945;51.718;5.324;2022-11-15T14:59:16;5.93;;;1.23;;
57055;SDS011;42945;51.718;5.324;2022-11-15T15:01:44;5.50;;;1.00;;
57055;SDS011;42945;51.718;5.324;2022-11-15T15:04:10;8.25;;;1.52;;
57055;SDS011;42945;51.718;5.324;2022-11-15T15:06:36;6.63;;;1.20;;
57055;SDS011;42945;51.718;5.324;2022-11-15T15:09:01;6.13;;;1.25;;
57055;SDS011;42945;51.718;5.324;2022-11-15T15:11:28;2.42;;;0.90;;
57055;SDS011;42945;51.718;5.324;2022-11-15T15:13:55;5.22;;;1.10;;
57055;SDS011;42945;51.718;5.324;2022-11-15T15:16:22;8.52;;;1.45;;
57055;SDS011;42945;51.718;5.324;2022-11-15T15:18:48;3.92;;;1.33;;
57055;SDS011;42945;51.718;5.324;2022-11-15T15:21:17;4.30;;;0.90;;
57055;SDS011;42945;51.718;5.324;2022-11-15T15:23:55;2.03;;;0.75;;
57055;SDS011;42945;51.718;5.324;2022-11-15T15:26:47;6.40;;;1.50;;
57055;SDS011;42945;51.718;5.324;2022-11-15T15:29:12;3.15;;;1.10;;
57055;SDS011;42945;51.718;5.324;2022-11-15T15:31:37;4.43;;;1.17;;
57055;SDS011;42945;51.718;5.324;2022-11-15T15:34:03;4.45;;;1.38;;
57055;SDS011;42945;51.718;5.324;2022-11-15T15:36:29;3.63;;;1.20;;
57055;SDS011;42945;51.718;5.324;2022-11-15T15:38:54;5.50;;;1.45;;
57055;SDS011;42945;51.718;5.324;2022-11-15T15:41:20;5.70;;;1.48;;
57055;SDS011;42945;51.718;5.324;2022-11-15T15:43:46;5.60;;;0.88;;
57055;SDS011;42945;51.718;5.324;2022-11-15T15:46:15;5.57;;;0.98;;
57055;SDS011;42945;51.718;5.324;2022-11-15T15:48:41;8.02;;;1.88;;
57055;SDS011;42945;51.718;5.324;2022-11-15T15:51:09;6.50;;;1.45;;
57055;SDS011;42945;51.718;5.324;2022-11-15T15:53:35;5.43;;;1.60;;
57055;SDS011;42945;51.718;5.324;2022-11-15T15:56:00;10.38;;;1.60;;
57055;SDS011;42945;51.718;5.324;2022-11-15T15:58:26;4.40;;;1.48;;
57055;SDS011;42945;51.718;5.324;2022-11-15T16:00:57;4.47;;;1.50;;
57055;SDS011;42945;51.718;5.324;2022-11-15T16:03:23;3.67;;;1.20;;
57055;SDS011;42945;51.718;5.324;2022-11-15T16:05:49;2.53;;;0.77;;
57055;SDS011;42945;51.718;5.324;2022-11-15T16:08:18;6.28;;;1.20;;
57055;SDS011;42945;51.718;5.324;2022-11-15T16:10:51;5.07;;;1.40;;
57055;SDS011;42945;51.718;5.324;2022-11-15T16:13:16;6.43;;;1.35;;
57055;SDS011;42945;51.718;5.324;2022-11-15T16:15:42;4.38;;;1.60;;
57055;SDS011;42945;51.718;5.324;2022-11-15T16:18:09;3.80;;;1.15;;
57055;SDS011;42945;51.718;5.324;2022-11-15T16:20:47;4.72;;;1.77;;
57055;SDS011;42945;51.718;5.324;2022-11-15T16:23:25;5.95;;;1.70;;
57055;SDS011;42945;51.718;5.324;2022-11-15T16:25:54;6.28;;;2.47;;
57055;SDS011;42945;51.718;5.324;2022-11-15T16:31:04;4.35;;;1.98;;
57055;SDS011;42945;51.718;5.324;2022-11-15T16:33:36;6.75;;;1.63;;
57055;SDS011;42945;51.718;5.324;2022-11-15T16:36:01;10.25;;;5.07;;
57055;SDS011;42945;51.718;5.324;2022-11-15T16:38:34;15.48;;;8.25;;
57055;SDS011;42945;51.718;5.324;2022-11-15T16:41:03;11.43;;;4.00;;
57055;SDS011;42945;51.718;5.324;2022-11-15T16:43:29;10.35;;;3.40;;
57055;SDS011;42945;51.718;5.324;2022-11-15T16:45:57;9.77;;;4.07;;
57055;SDS011;42945;51.718;5.324;2022-11-15T16:48:23;9.50;;;4.50;;
57055;SDS011;42945;51.718;5.324;2022-11-15T16:50:55;7.70;;;3.10;;
57055;SDS011;42945;51.718;5.324;2022-11-15T16:53:22;6.80;;;2.47;;
57055;SDS011;42945;51.718;5.324;2022-11-15T16:55:50;7.28;;;2.90;;
57055;SDS011;42945;51.718;5.324;2022-11-15T16:58:16;7.35;;;3.15;;
57055;SDS011;42945;51.718;5.324;2022-11-15T17:00:41;6.57;;;3.83;;
57055;SDS011;42945;51.718;5.324;2022-11-15T17:03:07;8.20;;;3.38;;
57055;SDS011;42945;51.718;5.324;2022-11-15T17:05:32;6.45;;;2.90;;